sensor_id;sensor_type;location;lat;lon;timestamp;pressure;altitude;pressure_sealevel;temperature;humidity
51195;BME280;37259;49.972;19.850;2023-02-16T00:00:41;99740;;;-0.2;88.6
51195;BME280;37259;49.972;19.850;2023-02-16T00:01:41;99740;;;-0.2;88.6
51195;BME280;37259;49.972;19.850;2023-02-16T00:02:41;99740;;;-0.2;88.6
51195;BME280;37259;49.972;19.850;2023-02-16T00:03:41;99740;;;-0.2;88.6
51195;BME280;37259;49.972;19.850;2023-02-16T00:04:41;99740;;;-0.2;88.6
51195;BME280;37259;49.972;19.850;2023-02-16T00:05:41;99740;;;-0.2;88.6
51195;BME280;37259;49.972;19.850;2023-02-16T00:06:41;99740;;;-0.2;88.6
51195;BME280;37259;49.972;19.850;2023-02-16T00:07:41;99740;;;-0.2;88.6
51195;BME280;37259;49.972;19.850;2023-02-16T00:08:42;99740;;;-0.3;88.6
51195;BME280;37259;49.972;19.850;2023-02-16T00:09:41;99740;;;-0.3;88.6
51195;BME280;37259;49.972;19.850;2023-02-16T00:10:41;99740;;;-0.3;88.6
51195;BME280;37259;49.972;19.850;2023-02-16T00:11:41;99740;;;-0.3;88.6
51195;BME280;37259;49.972;19.850;2023-02-16T00:12:41;99740;;;-0.3;88.6
51195;BME280;37259;49.972;19.850;2023-02-16T00:13:41;99740;;;-0.3;88.6
51195;BME280;37259;49.972;19.850;2023-02-16T00:14:41;99740;;;-0.3;88.6
51195;BME280;37259;49.972;19.850;2023-02-16T00:15:41;99740;;;-0.3;88.6
51195;BME280;37259;49.972;19.850;2023-02-16T00:16:41;99740;;;-0.3;88.6
51195;BME280;37259;49.972;19.850;2023-02-16T00:17:41;99740;;;-0.3;88.6
51195;BME280;37259;49.972;19.850;2023-02-16T00:18:41;99730;;;-0.3;88.6
51195;BME280;37259;49.972;19.850;2023-02-16T00:19:41;99730;;;-0.3;88.6
51195;BME280;37259;49.972;19.850;2023-02-16T00:20:41;99730;;;-0.4;88.6
51195;BME280;37259;49.972;19.850;2023-02-16T00:21:41;99730;;;-0.4;88.6
51195;BME280;37259;49.972;19.850;2023-02-16T00:22:41;99720;;;-0.4;88.6
51195;BME280;37259;49.972;19.850;2023-02-16T00:23:41;99720;;;-0.4;88.6
51195;BME280;37259;49.972;19.850;2023-02-16T00:24:41;99720;;;-0.4;88.7
51195;BME280;37259;49.972;19.850;2023-02-16T00:25:41;99720;;;-0.4;88.7
51195;BME280;37259;49.972;19.850;2023-02-16T00:26:41;99720;;;-0.4;88.7
51195;BME280;37259;49.972;19.850;2023-02-16T00:27:41;99720;;;-0.4;88.7
51195;BME280;37259;49.972;19.850;2023-02-16T00:28:41;99720;;;-0.4;88.7
51195;BME280;37259;49.972;19.850;2023-02-16T00:29:41;99720;;;-0.4;88.8
51195;BME280;37259;49.972;19.850;2023-02-16T00:30:41;99720;;;-0.4;88.8
51195;BME280;37259;49.972;19.850;2023-02-16T00:31:41;99720;;;-0.4;88.8
51195;BME280;37259;49.972;19.850;2023-02-16T00:32:41;99720;;;-0.4;88.9
51195;BME280;37259;49.972;19.850;2023-02-16T00:33:41;99720;;;-0.4;88.9
51195;BME280;37259;49.972;19.850;2023-02-16T00:34:41;99720;;;-0.4;88.9
51195;BME280;37259;49.972;19.850;2023-02-16T00:35:41;99720;;;-0.4;88.9
51195;BME280;37259;49.972;19.850;2023-02-16T00:36:41;99720;;;-0.4;89
51195;BME280;37259;49.972;19.850;2023-02-16T00:37:41;99720;;;-0.4;89
51195;BME280;37259;49.972;19.850;2023-02-16T00:38:41;99710;;;-0.4;89
51195;BME280;37259;49.972;19.850;2023-02-16T00:39:41;99710;;;-0.4;89.1
51195;BME280;37259;49.972;19.850;2023-02-16T00:40:41;99710;;;-0.4;89.1
51195;BME280;37259;49.972;19.850;2023-02-16T00:41:41;99710;;;-0.4;89.1
51195;BME280;37259;49.972;19.850;2023-02-16T00:42:41;99710;;;-0.4;89.1
51195;BME280;37259;49.972;19.850;2023-02-16T00:43:41;99700;;;-0.4;89.1
51195;BME280;37259;49.972;19.850;2023-02-16T00:44:41;99700;;;-0.4;89.1
51195;BME280;37259;49.972;19.850;2023-02-16T00:45:41;99700;;;-0.4;89.1
51195;BME280;37259;49.972;19.850;2023-02-16T00:46:41;99700;;;-0.4;89.1
51195;BME280;37259;49.972;19.850;2023-02-16T00:47:41;99700;;;-0.4;89.2
51195;BME280;37259;49.972;19.850;2023-02-16T00:48:41;99700;;;-0.4;89.2
51195;BME280;37259;49.972;19.850;2023-02-16T00:49:41;99700;;;-0.4;89.2
51195;BME280;37259;49.972;19.850;2023-02-16T00:50:41;99700;;;-0.4;89.2
51195;BME280;37259;49.972;19.850;2023-02-16T00:51:41;99700;;;-0.4;89.2
51195;BME280;37259;49.972;19.850;2023-02-16T00:52:41;99700;;;-0.4;89.2
51195;BME280;37259;49.972;19.850;2023-02-16T00:53:41;99700;;;-0.5;89.2
51195;BME280;37259;49.972;19.850;2023-02-16T00:54:41;99700;;;-0.5;89.2
51195;BME280;37259;49.972;19.850;2023-02-16T00:55:41;99700;;;-0.5;89.3
51195;BME280;37259;49.972;19.850;2023-02-16T00:56:41;99700;;;-0.5;89.3
51195;BME280;37259;49.972;19.850;2023-02-16T00:57:42;99700;;;-0.5;89.3
51195;BME280;37259;49.972;19.850;2023-02-16T00:58:41;99700;;;-0.5;89.3
51195;BME280;37259;49.972;19.850;2023-02-16T00:59:41;99690;;;-0.5;89.3
51195;BME280;37259;49.972;19.850;2023-02-16T01:00:42;99690;;;-0.5;89.3
51195;BME280;37259;49.972;19.850;2023-02-16T01:01:41;99690;;;-0.5;89.3
51195;BME280;37259;49.972;19.850;2023-02-16T01:02:41;99690;;;-0.5;89.3
51195;BME280;37259;49.972;19.850;2023-02-16T01:03:41;99690;;;-0.5;89.4
51195;BME280;37259;49.972;19.850;2023-02-16T01:04:41;99690;;;-0.5;89.4
51195;BME280;37259;49.972;19.850;2023-02-16T01:05:41;99690;;;-0.5;89.4
51195;BME280;37259;49.972;19.850;2023-02-16T01:06:41;99680;;;-0.5;89.4
51195;BME280;37259;49.972;19.850;2023-02-16T01:07:41;99680;;;-0.5;89.4
51195;BME280;37259;49.972;19.850;2023-02-16T01:08:41;99680;;;-0.5;89.4
51195;BME280;37259;49.972;19.850;2023-02-16T01:09:41;99680;;;-0.5;89.4
51195;BME280;37259;49.972;19.850;2023-02-16T01:10:41;99680;;;-0.6;89.4
51195;BME280;37259;49.972;19.850;2023-02-16T01:11:41;99670;;;-0.6;89.4
51195;BME280;37259;49.972;19.850;2023-02-16T01:12:41;99670;;;-0.6;89.4
51195;BME280;37259;49.972;19.850;2023-02-16T01:13:42;99670;;;-0.6;89.4
51195;BME280;37259;49.972;19.850;2023-02-16T01:14:41;99670;;;-0.6;89.4
51195;BME280;37259;49.972;19.850;2023-02-16T01:15:41;99670;;;-0.6;89.4
51195;BME280;37259;49.972;19.850;2023-02-16T01:16:41;99670;;;-0.6;89.4
51195;BME280;37259;49.972;19.850;2023-02-16T01:17:41;99670;;;-0.6;89.4
51195;BME280;37259;49.972;19.850;2023-02-16T01:18:41;99670;;;-0.6;89.4
51195;BME280;37259;49.972;19.850;2023-02-16T01:19:41;99670;;;-0.7;89.3
51195;BME280;37259;49.972;19.850;2023-02-16T01:20:41;99660;;;-0.7;89.3
51195;BME280;37259;49.972;19.850;2023-02-16T01:21:41;99660;;;-0.7;89.3
51195;BME280;37259;49.972;19.850;2023-02-16T01:22:41;99660;;;-0.7;89.3
51195;BME280;37259;49.972;19.850;2023-02-16T01:23:41;99660;;;-0.7;89.3
51195;BME280;37259;49.972;19.850;2023-02-16T01:24:41;99660;;;-0.7;89.3
51195;BME280;37259;49.972;19.850;2023-02-16T01:25:41;99660;;;-0.7;89.3
51195;BME280;37259;49.972;19.850;2023-02-16T01:26:41;99660;;;-0.7;89.3
51195;BME280;37259;49.972;19.850;2023-02-16T01:27:41;99660;;;-0.7;89.2
51195;BME280;37259;49.972;19.850;2023-02-16T01:28:41;99660;;;-0.7;89.2
51195;BME280;37259;49.972;19.850;2023-02-16T01:29:41;99660;;;-0.7;89.2
51195;BME280;37259;49.972;19.850;2023-02-16T01:30:41;99660;;;-0.7;89.2
51195;BME280;37259;49.972;19.850;2023-02-16T01:31:41;99650;;;-0.7;89.3
51195;BME280;37259;49.972;19.850;2023-02-16T01:32:41;99650;;;-0.7;89.3
51195;BME280;37259;49.972;19.850;2023-02-16T01:33:41;99650;;;-0.7;89.3
51195;BME280;37259;49.972;19.850;2023-02-16T01:34:41;99650;;;-0.7;89.3
51195;BME280;37259;49.972;19.850;2023-02-16T01:35:41;99660;;;-0.8;89.3
51195;BME280;37259;49.972;19.850;2023-02-16T01:36:42;99660;;;-0.8;89.3
51195;BME280;37259;49.972;19.850;2023-02-16T01:37:41;99650;;;-0.8;89.3
51195;BME280;37259;49.972;19.850;2023-02-16T01:38:41;99650;;;-0.8;89.3
51195;BME280;37259;49.972;19.850;2023-02-16T01:39:41;99650;;;-0.8;89.3
51195;BME280;37259;49.972;19.850;2023-02-16T01:40:41;99660;;;-0.8;89.3
51195;BME280;37259;49.972;19.850;2023-02-16T01:41:44;99650;;;-0.8;89.3
51195;BME280;37259;49.972;19.850;2023-02-16T01:42:43;99650;;;-0.8;89.3
51195;BME280;37259;49.972;19.850;2023-02-16T01:43:43;99650;;;-0.8;89.3
51195;BME280;37259;49.972;19.850;2023-02-16T01:44:41;99650;;;-0.9;89.3
51195;BME280;37259;49.972;19.850;2023-02-16T01:45:41;99650;;;-0.9;89.3
51195;BME280;37259;49.972;19.850;2023-02-16T01:46:42;99650;;;-0.9;89.2
51195;BME280;37259;49.972;19.850;2023-02-16T01:47:42;99650;;;-0.9;89.2
51195;BME280;37259;49.972;19.850;2023-02-16T01:48:41;99650;;;-0.9;89.2
51195;BME280;37259;49.972;19.850;2023-02-16T01:49:41;99650;;;-0.9;89.2
51195;BME280;37259;49.972;19.850;2023-02-16T01:50:42;99640;;;-0.9;89.1
51195;BME280;37259;49.972;19.850;2023-02-16T01:51:45;99640;;;-0.9;89.1
51195;BME280;37259;49.972;19.850;2023-02-16T01:52:41;99640;;;-0.9;89.1
51195;BME280;37259;49.972;19.850;2023-02-16T01:53:41;99640;;;-1;89
51195;BME280;37259;49.972;19.850;2023-02-16T01:54:42;99640;;;-1;89
51195;BME280;37259;49.972;19.850;2023-02-16T01:55:41;99630;;;-1;89
51195;BME280;37259;49.972;19.850;2023-02-16T01:56:42;99630;;;-1;89
51195;BME280;37259;49.972;19.850;2023-02-16T01:57:42;99630;;;-1.1;88.9
51195;BME280;37259;49.972;19.850;2023-02-16T01:58:41;99630;;;-1.1;88.9
51195;BME280;37259;49.972;19.850;2023-02-16T01:59:59;99630;;;-1.1;88.9
51195;BME280;37259;49.972;19.850;2023-02-16T02:01:42;99630;;;-1.1;88.9
51195;BME280;37259;49.972;19.850;2023-02-16T02:01:46;99630;;;-1.1;88.9
51195;BME280;37259;49.972;19.850;2023-02-16T02:02:42;99630;;;-1.1;88.9
51195;BME280;37259;49.972;19.850;2023-02-16T02:03:41;99630;;;-1.2;88.8
51195;BME280;37259;49.972;19.850;2023-02-16T02:04:42;99630;;;-1.2;88.8
51195;BME280;37259;49.972;19.850;2023-02-16T02:05:41;99630;;;-1.2;88.9
51195;BME280;37259;49.972;19.850;2023-02-16T02:06:41;99630;;;-1.2;88.9
51195;BME280;37259;49.972;19.850;2023-02-16T02:07:42;99620;;;-1.2;89
51195;BME280;37259;49.972;19.850;2023-02-16T02:08:42;99620;;;-1.2;89
51195;BME280;37259;49.972;19.850;2023-02-16T02:09:42;99620;;;-1.2;89
51195;BME280;37259;49.972;19.850;2023-02-16T02:10:44;99620;;;-1.2;89
51195;BME280;37259;49.972;19.850;2023-02-16T02:11:42;99620;;;-1.2;89
51195;BME280;37259;49.972;19.850;2023-02-16T02:12:45;99620;;;-1.2;89
51195;BME280;37259;49.972;19.850;2023-02-16T02:13:42;99620;;;-1.2;89
51195;BME280;37259;49.972;19.850;2023-02-16T02:14:41;99610;;;-1.2;89.1
51195;BME280;37259;49.972;19.850;2023-02-16T02:15:41;99610;;;-1.2;89.2
51195;BME280;37259;49.972;19.850;2023-02-16T02:16:50;99610;;;-1.2;89.2
51195;BME280;37259;49.972;19.850;2023-02-16T02:17:41;99610;;;-1.2;89.5
51195;BME280;37259;49.972;19.850;2023-02-16T02:18:41;99610;;;-1.2;89.5
51195;BME280;37259;49.972;19.850;2023-02-16T02:19:44;99610;;;-1.2;89.5
51195;BME280;37259;49.972;19.850;2023-02-16T02:20:47;99610;;;-1.2;89.5
51195;BME280;37259;49.972;19.850;2023-02-16T02:21:47;99610;;;-1.2;89.6
51195;BME280;37259;49.972;19.850;2023-02-16T02:22:53;99610;;;-1.2;89.6
51195;BME280;37259;49.972;19.850;2023-02-16T02:23:42;99610;;;-1.2;89.6
51195;BME280;37259;49.972;19.850;2023-02-16T02:24:47;99610;;;-1.1;89.7
51195;BME280;37259;49.972;19.850;2023-02-16T02:25:53;99610;;;-1.1;89.7
51195;BME280;37259;49.972;19.850;2023-02-16T02:26:49;99610;;;-1.1;89.7
51195;BME280;37259;49.972;19.850;2023-02-16T02:27:41;99610;;;-1.1;89.7
51195;BME280;37259;49.972;19.850;2023-02-16T02:28:43;99610;;;-1.1;89.9
51195;BME280;37259;49.972;19.850;2023-02-16T02:29:47;99610;;;-1.1;90.1
51195;BME280;37259;49.972;19.850;2023-02-16T02:30:44;99610;;;-1.1;90.1
51195;BME280;37259;49.972;19.850;2023-02-16T02:31:45;99610;;;-1.1;90.1
51195;BME280;37259;49.972;19.850;2023-02-16T02:32:45;99610;;;-1.1;90.1
51195;BME280;37259;49.972;19.850;2023-02-16T02:33:43;99620;;;-1.1;90.2
51195;BME280;37259;49.972;19.850;2023-02-16T02:34:45;99620;;;-1.1;90.2
51195;BME280;37259;49.972;19.850;2023-02-16T02:35:42;99610;;;-1.1;90.2
51195;BME280;37259;49.972;19.850;2023-02-16T02:36:41;99620;;;-1.1;90.2
51195;BME280;37259;49.972;19.850;2023-02-16T02:37:43;99620;;;-1.1;90.2
51195;BME280;37259;49.972;19.850;2023-02-16T02:38:44;99620;;;-1.1;90.4
51195;BME280;37259;49.972;19.850;2023-02-16T02:39:43;99620;;;-1.1;90.4
51195;BME280;37259;49.972;19.850;2023-02-16T02:40:46;99620;;;-1.1;90.5
51195;BME280;37259;49.972;19.850;2023-02-16T02:41:41;99620;;;-1.1;90.5
51195;BME280;37259;49.972;19.850;2023-02-16T02:42:43;99620;;;-1.1;90.5
51195;BME280;37259;49.972;19.850;2023-02-16T02:43:42;99620;;;-1.1;90.5
51195;BME280;37259;49.972;19.850;2023-02-16T02:44:41;99620;;;-1.1;90.5
51195;BME280;37259;49.972;19.850;2023-02-16T02:45:41;99620;;;-1.1;90.5
51195;BME280;37259;49.972;19.850;2023-02-16T02:46:41;99620;;;-1.1;90.5
51195;BME280;37259;49.972;19.850;2023-02-16T02:47:42;99620;;;-1.1;90.5
51195;BME280;37259;49.972;19.850;2023-02-16T02:48:41;99620;;;-1.1;90.5
51195;BME280;37259;49.972;19.850;2023-02-16T02:49:47;99620;;;-1.1;90.5
51195;BME280;37259;49.972;19.850;2023-02-16T02:50:42;99620;;;-1.1;90.5
51195;BME280;37259;49.972;19.850;2023-02-16T02:51:41;99620;;;-1.1;90.5
51195;BME280;37259;49.972;19.850;2023-02-16T02:52:41;99620;;;-1.1;90.5
51195;BME280;37259;49.972;19.850;2023-02-16T02:53:42;99620;;;-1.1;90.5
51195;BME280;37259;49.972;19.850;2023-02-16T02:54:41;99620;;;-1.1;90.5
51195;BME280;37259;49.972;19.850;2023-02-16T02:55:41;99610;;;-1.1;90.5
51195;BME280;37259;49.972;19.850;2023-02-16T02:56:42;99610;;;-1.1;90.5
51195;BME280;37259;49.972;19.850;2023-02-16T02:57:41;99610;;;-1.1;90.5
51195;BME280;37259;49.972;19.850;2023-02-16T02:58:41;99610;;;-1.1;90.5
51195;BME280;37259;49.972;19.850;2023-02-16T02:59:42;99610;;;-1.2;90.5
51195;BME280;37259;49.972;19.850;2023-02-16T03:00:42;99610;;;-1.2;90.5
51195;BME280;37259;49.972;19.850;2023-02-16T03:01:41;99610;;;-1.2;90.5
51195;BME280;37259;49.972;19.850;2023-02-16T03:02:41;99610;;;-1.2;90.4
51195;BME280;37259;49.972;19.850;2023-02-16T03:03:41;99610;;;-1.2;90.4
51195;BME280;37259;49.972;19.850;2023-02-16T03:04:41;99610;;;-1.2;90.4
51195;BME280;37259;49.972;19.850;2023-02-16T03:05:43;99620;;;-1.2;90.4
51195;BME280;37259;49.972;19.850;2023-02-16T03:06:42;99620;;;-1.2;90.4
51195;BME280;37259;49.972;19.850;2023-02-16T03:07:41;99620;;;-1.2;90.4
51195;BME280;37259;49.972;19.850;2023-02-16T03:08:42;99620;;;-1.2;90.4
51195;BME280;37259;49.972;19.850;2023-02-16T03:09:41;99630;;;-1.2;90.3
51195;BME280;37259;49.972;19.850;2023-02-16T03:10:42;99630;;;-1.2;90.3
51195;BME280;37259;49.972;19.850;2023-02-16T03:11:41;99630;;;-1.2;90.3
51195;BME280;37259;49.972;19.850;2023-02-16T03:12:41;99630;;;-1.2;90.3
51195;BME280;37259;49.972;19.850;2023-02-16T03:13:42;99630;;;-1.2;90.3
51195;BME280;37259;49.972;19.850;2023-02-16T03:14:41;99630;;;-1.2;90.3
51195;BME280;37259;49.972;19.850;2023-02-16T03:15:41;99630;;;-1.2;90.2
51195;BME280;37259;49.972;19.850;2023-02-16T03:16:41;99630;;;-1.2;90.2
51195;BME280;37259;49.972;19.850;2023-02-16T03:17:41;99640;;;-1.2;90.3
51195;BME280;37259;49.972;19.850;2023-02-16T03:18:41;99640;;;-1.2;90.3
51195;BME280;37259;49.972;19.850;2023-02-16T03:19:41;99640;;;-1.2;90.2
51195;BME280;37259;49.972;19.850;2023-02-16T03:20:41;99640;;;-1.2;90.2
51195;BME280;37259;49.972;19.850;2023-02-16T03:21:41;99640;;;-1.2;90.2
51195;BME280;37259;49.972;19.850;2023-02-16T03:22:41;99640;;;-1.2;90.2
51195;BME280;37259;49.972;19.850;2023-02-16T03:23:41;99640;;;-1.2;90.2
51195;BME280;37259;49.972;19.850;2023-02-16T03:24:41;99640;;;-1.2;90.2
51195;BME280;37259;49.972;19.850;2023-02-16T03:25:41;99640;;;-1.2;90.2
51195;BME280;37259;49.972;19.850;2023-02-16T03:26:41;99640;;;-1.3;90.2
51195;BME280;37259;49.972;19.850;2023-02-16T03:27:41;99640;;;-1.3;90.2
51195;BME280;37259;49.972;19.850;2023-02-16T03:28:41;99640;;;-1.3;90.2
51195;BME280;37259;49.972;19.850;2023-02-16T03:29:41;99640;;;-1.3;90.2
51195;BME280;37259;49.972;19.850;2023-02-16T03:30:41;99640;;;-1.3;90.2
51195;BME280;37259;49.972;19.850;2023-02-16T03:31:41;99640;;;-1.3;90.2
51195;BME280;37259;49.972;19.850;2023-02-16T03:32:41;99640;;;-1.3;90.2
51195;BME280;37259;49.972;19.850;2023-02-16T03:33:41;99640;;;-1.3;90.2
51195;BME280;37259;49.972;19.850;2023-02-16T03:34:41;99640;;;-1.3;90.2
51195;BME280;37259;49.972;19.850;2023-02-16T03:35:41;99640;;;-1.3;90.2
51195;BME280;37259;49.972;19.850;2023-02-16T03:36:41;99640;;;-1.3;90.2
51195;BME280;37259;49.972;19.850;2023-02-16T03:37:41;99640;;;-1.3;90.2
51195;BME280;37259;49.972;19.850;2023-02-16T03:38:41;99640;;;-1.3;90.2
51195;BME280;37259;49.972;19.850;2023-02-16T03:39:41;99640;;;-1.3;90.2
51195;BME280;37259;49.972;19.850;2023-02-16T03:40:41;99640;;;-1.3;90.2
51195;BME280;37259;49.972;19.850;2023-02-16T03:41:42;99630;;;-1.3;90.3
51195;BME280;37259;49.972;19.850;2023-02-16T03:42:46;99630;;;-1.3;90.3
51195;BME280;37259;49.972;19.850;2023-02-16T03:43:41;99630;;;-1.3;90.3
51195;BME280;37259;49.972;19.850;2023-02-16T03:44:41;99630;;;-1.3;90.3
51195;BME280;37259;49.972;19.850;2023-02-16T03:45:41;99630;;;-1.3;90.3
51195;BME280;37259;49.972;19.850;2023-02-16T03:46:41;99630;;;-1.3;90.3
51195;BME280;37259;49.972;19.850;2023-02-16T03:47:41;99630;;;-1.3;90.3
51195;BME280;37259;49.972;19.850;2023-02-16T03:48:41;99630;;;-1.3;90.4
51195;BME280;37259;49.972;19.850;2023-02-16T03:49:41;99630;;;-1.3;90.4
51195;BME280;37259;49.972;19.850;2023-02-16T03:50:41;99630;;;-1.3;90.4
51195;BME280;37259;49.972;19.850;2023-02-16T03:51:41;99630;;;-1.3;90.5
51195;BME280;37259;49.972;19.850;2023-02-16T03:52:41;99630;;;-1.3;90.5
51195;BME280;37259;49.972;19.850;2023-02-16T03:53:41;99630;;;-1.3;90.6
51195;BME280;37259;49.972;19.850;2023-02-16T03:54:41;99630;;;-1.3;90.6
51195;BME280;37259;49.972;19.850;2023-02-16T03:55:42;99630;;;-1.3;90.6
51195;BME280;37259;49.972;19.850;2023-02-16T03:56:41;99630;;;-1.3;90.6
51195;BME280;37259;49.972;19.850;2023-02-16T03:57:41;99620;;;-1.3;90.6
51195;BME280;37259;49.972;19.850;2023-02-16T03:58:41;99620;;;-1.3;90.6
51195;BME280;37259;49.972;19.850;2023-02-16T03:59:41;99620;;;-1.3;90.6
51195;BME280;37259;49.972;19.850;2023-02-16T04:00:41;99620;;;-1.3;90.7
51195;BME280;37259;49.972;19.850;2023-02-16T04:01:41;99620;;;-1.3;90.7
51195;BME280;37259;49.972;19.850;2023-02-16T04:02:41;99620;;;-1.3;90.6
51195;BME280;37259;49.972;19.850;2023-02-16T04:03:41;99620;;;-1.3;90.6
51195;BME280;37259;49.972;19.850;2023-02-16T04:04:41;99620;;;-1.3;90.6
51195;BME280;37259;49.972;19.850;2023-02-16T04:05:41;99620;;;-1.3;90.6
51195;BME280;37259;49.972;19.850;2023-02-16T04:06:41;99620;;;-1.3;90.6
51195;BME280;37259;49.972;19.850;2023-02-16T04:07:41;99620;;;-1.3;90.7
51195;BME280;37259;49.972;19.850;2023-02-16T04:08:41;99620;;;-1.3;90.7
51195;BME280;37259;49.972;19.850;2023-02-16T04:09:41;99620;;;-1.3;90.6
51195;BME280;37259;49.972;19.850;2023-02-16T04:10:41;99620;;;-1.3;90.6
51195;BME280;37259;49.972;19.850;2023-02-16T04:11:41;99620;;;-1.3;90.6
51195;BME280;37259;49.972;19.850;2023-02-16T04:12:41;99620;;;-1.3;90.6
51195;BME280;37259;49.972;19.850;2023-02-16T04:13:41;99620;;;-1.3;90.6
51195;BME280;37259;49.972;19.850;2023-02-16T04:14:41;99620;;;-1.3;90.6
51195;BME280;37259;49.972;19.850;2023-02-16T04:15:41;99620;;;-1.3;90.6
51195;BME280;37259;49.972;19.850;2023-02-16T04:16:41;99620;;;-1.3;90.6
51195;BME280;37259;49.972;19.850;2023-02-16T04:17:41;99630;;;-1.3;90.7
51195;BME280;37259;49.972;19.850;2023-02-16T04:18:41;99630;;;-1.3;90.7
51195;BME280;37259;49.972;19.850;2023-02-16T04:19:41;99630;;;-1.3;90.7
51195;BME280;37259;49.972;19.850;2023-02-16T04:20:41;99630;;;-1.3;90.7
51195;BME280;37259;49.972;19.850;2023-02-16T04:21:41;99630;;;-1.3;90.7
51195;BME280;37259;49.972;19.850;2023-02-16T04:22:41;99620;;;-1.3;90.7
51195;BME280;37259;49.972;19.850;2023-02-16T04:23:41;99620;;;-1.3;90.7
51195;BME280;37259;49.972;19.850;2023-02-16T04:24:41;99620;;;-1.3;90.7
51195;BME280;37259;49.972;19.850;2023-02-16T04:25:41;99620;;;-1.3;90.7
51195;BME280;37259;49.972;19.850;2023-02-16T04:26:41;99620;;;-1.3;90.7
51195;BME280;37259;49.972;19.850;2023-02-16T04:27:41;99620;;;-1.3;90.7
51195;BME280;37259;49.972;19.850;2023-02-16T04:28:41;99630;;;-1.3;90.7
51195;BME280;37259;49.972;19.850;2023-02-16T04:29:41;99620;;;-1.3;90.7
51195;BME280;37259;49.972;19.850;2023-02-16T04:30:41;99620;;;-1.3;90.7
51195;BME280;37259;49.972;19.850;2023-02-16T04:31:41;99620;;;-1.3;90.7
51195;BME280;37259;49.972;19.850;2023-02-16T04:32:41;99620;;;-1.3;90.6
51195;BME280;37259;49.972;19.850;2023-02-16T04:33:41;99610;;;-1.3;90.7
51195;BME280;37259;49.972;19.850;2023-02-16T04:34:41;99610;;;-1.3;90.7
51195;BME280;37259;49.972;19.850;2023-02-16T04:35:41;99610;;;-1.3;90.8
51195;BME280;37259;49.972;19.850;2023-02-16T04:36:41;99610;;;-1.3;90.8
51195;BME280;37259;49.972;19.850;2023-02-16T04:37:41;99600;;;-1.3;91
51195;BME280;37259;49.972;19.850;2023-02-16T04:38:41;99600;;;-1.3;91
51195;BME280;37259;49.972;19.850;2023-02-16T04:39:41;99600;;;-1.3;91.1
51195;BME280;37259;49.972;19.850;2023-02-16T04:40:41;99600;;;-1.3;91.1
51195;BME280;37259;49.972;19.850;2023-02-16T04:41:41;99600;;;-1.2;91.1
51195;BME280;37259;49.972;19.850;2023-02-16T04:42:41;99600;;;-1.2;91.1
51195;BME280;37259;49.972;19.850;2023-02-16T04:43:41;99600;;;-1.2;91.1
51195;BME280;37259;49.972;19.850;2023-02-16T04:44:41;99600;;;-1.2;91.1
51195;BME280;37259;49.972;19.850;2023-02-16T04:45:41;99600;;;-1.2;91.1
51195;BME280;37259;49.972;19.850;2023-02-16T04:46:41;99600;;;-1.2;91.2
51195;BME280;37259;49.972;19.850;2023-02-16T04:47:41;99590;;;-1.2;91.1
51195;BME280;37259;49.972;19.850;2023-02-16T04:48:41;99590;;;-1.2;91.1
51195;BME280;37259;49.972;19.850;2023-02-16T04:49:41;99590;;;-1.3;91.1
51195;BME280;37259;49.972;19.850;2023-02-16T04:50:41;99590;;;-1.3;91.2
51195;BME280;37259;49.972;19.850;2023-02-16T04:51:41;99590;;;-1.3;91.2
51195;BME280;37259;49.972;19.850;2023-02-16T04:52:41;99590;;;-1.2;91.2
51195;BME280;37259;49.972;19.850;2023-02-16T04:53:41;99590;;;-1.2;91.2
51195;BME280;37259;49.972;19.850;2023-02-16T04:54:41;99590;;;-1.2;91.1
51195;BME280;37259;49.972;19.850;2023-02-16T04:55:44;99590;;;-1.2;91.1
51195;BME280;37259;49.972;19.850;2023-02-16T04:56:42;99590;;;-1.2;91.1
51195;BME280;37259;49.972;19.850;2023-02-16T04:57:41;99600;;;-1.2;91.1
51195;BME280;37259;49.972;19.850;2023-02-16T04:58:41;99600;;;-1.2;91.1
51195;BME280;37259;49.972;19.850;2023-02-16T04:59:41;99600;;;-1.2;91
51195;BME280;37259;49.972;19.850;2023-02-16T05:00:41;99600;;;-1.2;91
51195;BME280;37259;49.972;19.850;2023-02-16T05:01:41;99600;;;-1.2;91
51195;BME280;37259;49.972;19.850;2023-02-16T05:02:41;99600;;;-1.2;91
51195;BME280;37259;49.972;19.850;2023-02-16T05:03:41;99600;;;-1.2;91
51195;BME280;37259;49.972;19.850;2023-02-16T05:04:41;99600;;;-1.2;91
51195;BME280;37259;49.972;19.850;2023-02-16T05:05:41;99600;;;-1.2;91
51195;BME280;37259;49.972;19.850;2023-02-16T05:06:41;99600;;;-1.2;91
51195;BME280;37259;49.972;19.850;2023-02-16T05:07:41;99600;;;-1.2;91
51195;BME280;37259;49.972;19.850;2023-02-16T05:08:41;99600;;;-1.2;90.9
51195;BME280;37259;49.972;19.850;2023-02-16T05:09:41;99600;;;-1.2;90.9
51195;BME280;37259;49.972;19.850;2023-02-16T05:10:41;99600;;;-1.2;90.9
51195;BME280;37259;49.972;19.850;2023-02-16T05:11:41;99600;;;-1.2;90.9
51195;BME280;37259;49.972;19.850;2023-02-16T05:12:41;99600;;;-1.2;90.9
51195;BME280;37259;49.972;19.850;2023-02-16T05:13:41;99600;;;-1.2;90.8
51195;BME280;37259;49.972;19.850;2023-02-16T05:14:41;99600;;;-1.2;90.8
51195;BME280;37259;49.972;19.850;2023-02-16T05:15:41;99600;;;-1.2;90.8
51195;BME280;37259;49.972;19.850;2023-02-16T05:16:41;99600;;;-1.2;90.8
51195;BME280;37259;49.972;19.850;2023-02-16T05:17:41;99600;;;-1.2;90.8
51195;BME280;37259;49.972;19.850;2023-02-16T05:18:41;99600;;;-1.2;90.8
51195;BME280;37259;49.972;19.850;2023-02-16T05:19:41;99590;;;-1.2;90.8
51195;BME280;37259;49.972;19.850;2023-02-16T05:20:41;99590;;;-1.2;90.8
51195;BME280;37259;49.972;19.850;2023-02-16T05:21:41;99590;;;-1.2;90.8
51195;BME280;37259;49.972;19.850;2023-02-16T05:22:41;99590;;;-1.2;90.7
51195;BME280;37259;49.972;19.850;2023-02-16T05:23:41;99590;;;-1.2;90.7
51195;BME280;37259;49.972;19.850;2023-02-16T05:24:41;99590;;;-1.2;90.7
51195;BME280;37259;49.972;19.850;2023-02-16T05:25:41;99590;;;-1.2;90.7
51195;BME280;37259;49.972;19.850;2023-02-16T05:26:41;99590;;;-1.2;90.7
51195;BME280;37259;49.972;19.850;2023-02-16T05:27:41;99580;;;-1.2;90.7
51195;BME280;37259;49.972;19.850;2023-02-16T05:28:41;99580;;;-1.2;90.6
51195;BME280;37259;49.972;19.850;2023-02-16T05:29:41;99580;;;-1.2;90.6
51195;BME280;37259;49.972;19.850;2023-02-16T05:30:41;99580;;;-1.2;90.6
51195;BME280;37259;49.972;19.850;2023-02-16T05:31:41;99580;;;-1.2;90.6
51195;BME280;37259;49.972;19.850;2023-02-16T05:32:41;99580;;;-1.2;90.6
51195;BME280;37259;49.972;19.850;2023-02-16T05:33:41;99580;;;-1.2;90.6
51195;BME280;37259;49.972;19.850;2023-02-16T05:34:41;99580;;;-1.2;90.6
51195;BME280;37259;49.972;19.850;2023-02-16T05:35:41;99580;;;-1.2;90.6
51195;BME280;37259;49.972;19.850;2023-02-16T05:36:41;99590;;;-1.2;90.6